createdAt,value
2018-03-30T00:02:03.762Z,4.00
2018-03-30T00:04:31.317Z,4.50
2018-03-30T00:07:08.396Z,4.13
2018-03-30T00:09:48.167Z,5.03
2018-03-30T00:12:15.653Z,3.67
2018-03-30T00:14:43.263Z,3.80
2018-03-30T00:17:11.228Z,4.63
2018-03-30T00:19:39.201Z,4.53
2018-03-30T00:22:07.067Z,4.23
2018-03-30T00:24:35.050Z,4.23
2018-03-30T00:27:03.008Z,3.87
2018-03-30T00:29:31.078Z,4.23
2018-03-30T00:31:58.874Z,4.67
2018-03-30T00:34:26.421Z,5.27
2018-03-30T00:36:53.889Z,4.27
2018-03-30T00:39:21.323Z,3.63
2018-03-30T00:41:49.453Z,4.33
2018-03-30T00:44:16.949Z,4.43
2018-03-30T00:46:44.820Z,4.80
2018-03-30T00:49:12.860Z,4.20
2018-03-30T00:51:40.289Z,5.73
2018-03-30T00:54:07.827Z,5.90
2018-03-30T00:56:35.574Z,6.30
2018-03-30T00:59:03.028Z,4.87
2018-03-30T01:01:30.914Z,6.30
2018-03-30T01:03:58.456Z,5.23
2018-03-30T01:06:26.322Z,4.93
2018-03-30T01:08:54.192Z,5.70
2018-03-30T01:11:21.647Z,4.10
2018-03-30T01:13:57.811Z,5.30
2018-03-30T01:16:26.391Z,4.17
2018-03-30T01:18:54.261Z,6.23
2018-03-30T01:21:21.863Z,6.37
2018-03-30T01:23:49.482Z,6.60
2018-03-30T01:26:16.968Z,6.03
2018-03-30T01:28:44.434Z,7.20
2018-03-30T01:31:11.880Z,6.23
2018-03-30T01:33:39.315Z,7.43
2018-03-30T01:36:07.213Z,6.13
2018-03-30T01:38:34.742Z,4.93
2018-03-30T01:41:02.746Z,6.27
2018-03-30T01:43:30.269Z,5.13
2018-03-30T01:45:57.831Z,6.00
2018-03-30T01:48:25.799Z,7.70
2018-03-30T01:50:53.771Z,5.57
2018-03-30T01:53:21.686Z,5.47
2018-03-30T01:55:50.371Z,6.23
2018-03-30T01:58:18.089Z,5.33
2018-03-30T02:00:45.873Z,5.87
2018-03-30T02:03:13.326Z,4.97
2018-03-30T02:05:41.383Z,6.70
2018-03-30T02:08:09.354Z,6.83
2018-03-30T02:10:37.321Z,5.90
2018-03-30T02:13:09.826Z,5.67
2018-03-30T02:15:37.359Z,5.93
2018-03-30T02:18:04.841Z,5.43
2018-03-30T02:20:32.374Z,5.50
2018-03-30T02:23:00.258Z,7.03
2018-03-30T02:25:27.735Z,6.53
2018-03-30T02:27:55.183Z,5.57
2018-03-30T02:30:22.634Z,6.47
2018-03-30T02:32:50.180Z,6.50
2018-03-30T02:35:17.737Z,7.03
2018-03-30T02:37:45.562Z,6.40
2018-03-30T02:40:13.065Z,8.30
2018-03-30T02:42:40.840Z,8.73
2018-03-30T02:45:08.388Z,5.33
2018-03-30T02:47:36.355Z,7.73
2018-03-30T02:50:03.943Z,6.80
2018-03-30T02:52:31.475Z,6.00
2018-03-30T02:54:59.276Z,5.40
2018-03-30T02:57:26.800Z,6.83
2018-03-30T02:59:54.797Z,8.00
2018-03-30T03:02:22.434Z,6.50
2018-03-30T03:04:49.941Z,6.33
2018-03-30T03:07:17.564Z,8.00
2018-03-30T03:09:45.041Z,5.90
2018-03-30T03:12:12.677Z,6.70
2018-03-30T03:14:40.233Z,7.10
2018-03-30T03:17:08.230Z,6.43
2018-03-30T03:19:35.792Z,6.90
2018-03-30T03:22:03.425Z,7.03
2018-03-30T03:24:31.394Z,7.03
2018-03-30T03:26:58.881Z,8.40
2018-03-30T03:29:26.414Z,6.50
2018-03-30T03:31:54.074Z,7.37
2018-03-30T03:34:21.968Z,8.40
2018-03-30T03:36:49.501Z,7.63
2018-03-30T03:39:17.399Z,8.00
2018-03-30T03:41:44.968Z,7.87
2018-03-30T03:44:12.504Z,5.67
2018-03-30T03:46:40.152Z,8.63
2018-03-30T03:49:08.250Z,5.97
2018-03-30T03:51:35.697Z,9.43
2018-03-30T03:54:03.241Z,8.50
2018-03-30T03:56:31.210Z,6.93
2018-03-30T03:58:58.996Z,7.40
2018-03-30T04:01:26.536Z,11.07
2018-03-30T04:03:54.503Z,7.97
2018-03-30T04:06:22.370Z,7.33
2018-03-30T04:08:50.300Z,9.93
2018-03-30T04:11:17.695Z,9.13
2018-03-30T04:13:45.564Z,8.20
2018-03-30T04:16:13.533Z,8.47
2018-03-30T04:18:41.511Z,9.00
2018-03-30T04:21:08.980Z,9.70
2018-03-30T04:23:36.520Z,10.27
2018-03-30T04:26:04.397Z,10.23
2018-03-30T04:28:31.846Z,8.90
2018-03-30T04:30:59.757Z,8.37
2018-03-30T04:33:27.376Z,8.27
2018-03-30T04:36:02.585Z,10.10
2018-03-30T04:38:30.112Z,8.40
2018-03-30T04:40:57.766Z,7.13
2018-03-30T04:43:25.224Z,8.60
2018-03-30T04:45:52.655Z,8.23
2018-03-30T04:48:20.619Z,10.80
2018-03-30T04:50:48.178Z,10.10
2018-03-30T04:53:16.096Z,9.83
2018-03-30T04:55:43.709Z,8.40
2018-03-30T04:58:11.579Z,9.80
2018-03-30T05:00:39.549Z,9.33
2018-03-30T05:03:07.040Z,7.70
2018-03-30T05:05:34.564Z,11.03
2018-03-30T05:08:02.228Z,8.53
2018-03-30T05:10:30.299Z,7.90
2018-03-30T05:12:58.374Z,7.50
2018-03-30T05:15:26.270Z,9.10
2018-03-30T05:17:53.903Z,8.23
2018-03-30T05:20:21.563Z,8.93
2018-03-30T05:22:49.083Z,9.63
2018-03-30T05:25:16.683Z,8.87
2018-03-30T05:27:44.650Z,7.60
2018-03-30T05:30:13.379Z,8.73
2018-03-30T05:32:46.127Z,9.83
2018-03-30T05:35:15.326Z,8.87
2018-03-30T05:40:56.692Z,7.20
2018-03-30T05:43:25.947Z,8.17
2018-03-30T05:45:53.407Z,7.63
2018-03-30T05:48:22.274Z,7.33
2018-03-30T05:50:50.254Z,11.10
2018-03-30T05:53:17.739Z,9.20
2018-03-30T05:55:45.669Z,8.93
2018-03-30T05:58:13.781Z,11.17
2018-03-30T06:00:41.404Z,9.73
2018-03-30T06:03:15.858Z,9.53
2018-03-30T06:05:43.590Z,9.80
2018-03-30T06:08:11.558Z,8.40
2018-03-30T06:10:39.527Z,8.43
2018-03-30T06:13:07.467Z,9.00
2018-03-30T06:15:35.268Z,9.70
2018-03-30T06:18:02.750Z,9.60
2018-03-30T06:20:30.282Z,9.13
2018-03-30T06:22:58.145Z,9.50
2018-03-30T06:25:29.778Z,10.37
2018-03-30T06:27:59.116Z,9.27
2018-03-30T06:30:26.769Z,9.90
2018-03-30T06:32:54.237Z,9.20
2018-03-30T06:35:21.890Z,9.40
2018-03-30T06:37:49.788Z,9.70
2018-03-30T06:40:17.516Z,9.57
2018-03-30T06:42:48.050Z,10.70
2018-03-30T06:45:15.652Z,9.70
2018-03-30T06:47:43.308Z,9.43
2018-03-30T06:50:15.819Z,10.10
2018-03-30T06:52:43.408Z,10.27
2018-03-30T06:55:11.431Z,7.83
2018-03-30T06:57:39.101Z,8.50
2018-03-30T07:00:06.689Z,7.27
2018-03-30T07:02:34.676Z,7.13
2018-03-30T07:05:02.645Z,10.27
2018-03-30T07:07:30.613Z,10.67
2018-03-30T07:10:00.637Z,9.20
2018-03-30T07:12:28.297Z,8.83
2018-03-30T07:14:56.260Z,9.73
2018-03-30T07:17:24.230Z,9.83
2018-03-30T07:19:52.200Z,7.17
2018-03-30T07:22:19.680Z,9.60
2018-03-30T07:24:47.165Z,11.17
2018-03-30T07:27:20.818Z,11.73
2018-03-30T07:29:48.415Z,11.87
2018-03-30T07:32:15.872Z,11.30
2018-03-30T07:34:43.408Z,10.37
2018-03-30T07:37:11.063Z,10.70
2018-03-30T07:39:39.028Z,12.13
2018-03-30T07:42:09.078Z,11.37
2018-03-30T07:44:36.957Z,10.07
2018-03-30T07:47:04.534Z,11.30
2018-03-30T07:49:32.139Z,11.37
2018-03-30T07:51:59.635Z,8.73
2018-03-30T07:54:27.076Z,11.03
2018-03-30T07:56:54.716Z,11.57
2018-03-30T07:59:22.529Z,9.27
2018-03-30T08:01:50.143Z,10.87
2018-03-30T08:04:17.926Z,12.07
2018-03-30T08:06:45.389Z,8.93
2018-03-30T08:09:12.922Z,11.67
2018-03-30T08:11:40.787Z,10.20
2018-03-30T08:14:08.756Z,11.80
2018-03-30T08:16:36.727Z,10.50
2018-03-30T08:19:04.699Z,12.00
2018-03-30T08:21:32.667Z,10.17
2018-03-30T08:24:00.569Z,12.10
2018-03-30T08:26:28.025Z,12.73
2018-03-30T08:28:55.427Z,10.27
2018-03-30T08:31:23.726Z,12.83
2018-03-30T08:33:51.612Z,10.23
2018-03-30T08:36:19.079Z,12.50
2018-03-30T08:38:46.611Z,12.93
2018-03-30T08:41:14.503Z,11.33
2018-03-30T08:43:42.041Z,12.33
2018-03-30T08:46:09.804Z,10.70
2018-03-30T08:48:37.401Z,10.17
2018-03-30T08:51:04.822Z,12.80
2018-03-30T08:53:32.791Z,10.77
2018-03-30T08:56:00.765Z,13.83
2018-03-30T08:58:28.249Z,11.17
2018-03-30T09:00:55.693Z,11.50
2018-03-30T09:03:23.087Z,12.77
2018-03-30T09:05:50.523Z,11.00
2018-03-30T09:08:18.048Z,12.37
2018-03-30T09:10:45.831Z,11.03
2018-03-30T09:13:13.475Z,12.97
2018-03-30T09:15:40.903Z,13.40
2018-03-30T09:18:08.804Z,12.50
2018-03-30T09:20:38.307Z,12.03
2018-03-30T09:23:06.174Z,15.37
2018-03-30T09:25:34.040Z,12.93
2018-03-30T09:28:01.906Z,14.07
2018-03-30T09:30:29.776Z,8.33
2018-03-30T09:32:57.672Z,12.97
2018-03-30T09:35:25.132Z,17.47
2018-03-30T09:37:52.606Z,16.67
2018-03-30T09:40:20.249Z,16.33
2018-03-30T09:42:48.191Z,15.93
2018-03-30T09:45:19.436Z,14.33
2018-03-30T09:47:47.405Z,16.47
2018-03-30T09:50:15.476Z,15.17
2018-03-30T09:52:43.860Z,16.67
2018-03-30T09:55:11.825Z,17.13
2018-03-30T09:57:39.796Z,17.80
2018-03-30T10:00:07.868Z,16.93
2018-03-30T10:02:35.838Z,15.30
2018-03-30T10:05:03.500Z,16.33
2018-03-30T10:07:31.468Z,17.33
2018-03-30T10:09:59.439Z,16.47
2018-03-30T10:12:27.407Z,16.70
2018-03-30T10:14:55.211Z,15.43
2018-03-30T10:17:22.735Z,15.97
2018-03-30T10:19:50.314Z,13.57
2018-03-30T10:22:17.854Z,14.43
2018-03-30T10:24:45.630Z,16.13
2018-03-30T10:27:13.485Z,13.13
2018-03-30T10:29:41.384Z,14.63
2018-03-30T10:32:08.808Z,15.67
2018-03-30T10:34:36.613Z,16.27
2018-03-30T10:37:04.238Z,16.97
2018-03-30T10:39:34.450Z,16.17
2018-03-30T10:42:02.359Z,17.80
2018-03-30T10:44:29.809Z,14.60
2018-03-30T10:46:57.197Z,15.97
2018-03-30T10:49:25.108Z,17.57
2018-03-30T10:51:52.976Z,14.00
2018-03-30T10:54:20.946Z,16.47
2018-03-30T10:56:48.814Z,10.93
2018-03-30T10:59:16.888Z,16.70
2018-03-30T11:01:44.447Z,16.00
2018-03-30T11:04:12.621Z,16.77
2018-03-30T11:06:40.182Z,16.47
2018-03-30T11:09:08.255Z,16.77
2018-03-30T11:11:35.832Z,13.80
2018-03-30T11:14:03.782Z,15.73
2018-03-30T11:16:31.753Z,16.33
2018-03-30T11:18:59.246Z,15.63
2018-03-30T11:21:26.872Z,15.67
2018-03-30T11:23:54.841Z,14.23
2018-03-30T11:26:23.055Z,16.13
2018-03-30T11:28:50.604Z,14.83
2018-03-30T11:31:19.160Z,14.10
2018-03-30T11:33:47.133Z,12.57
2018-03-30T11:36:15.107Z,14.40
2018-03-30T11:38:42.606Z,15.27
2018-03-30T11:41:10.059Z,13.03
2018-03-30T11:43:37.689Z,13.77
2018-03-30T11:46:05.165Z,15.47
2018-03-30T11:48:32.733Z,15.10
2018-03-30T11:51:00.329Z,17.03
2018-03-30T11:53:28.024Z,13.90
2018-03-30T11:55:55.533Z,13.93
2018-03-30T11:58:23.140Z,13.17
2018-03-30T12:00:50.699Z,14.37
2018-03-30T12:03:18.593Z,15.10
2018-03-30T12:05:46.128Z,12.27
2018-03-30T12:08:13.688Z,13.23
2018-03-30T12:10:41.348Z,15.27
2018-03-30T12:13:09.013Z,12.23
2018-03-30T12:15:36.573Z,12.57
2018-03-30T12:18:04.134Z,14.07
2018-03-30T12:20:31.726Z,14.17
2018-03-30T12:22:59.288Z,12.53
2018-03-30T12:25:26.841Z,12.90
2018-03-30T12:27:54.473Z,13.47
2018-03-30T12:30:22.243Z,14.73
2018-03-30T12:32:53.496Z,12.47
2018-03-30T12:35:21.149Z,13.30
2018-03-30T12:37:48.811Z,14.27
2018-03-30T12:40:16.703Z,13.87
2018-03-30T12:42:44.269Z,11.90
2018-03-30T12:45:11.797Z,12.03
2018-03-30T12:47:39.631Z,12.73
2018-03-30T12:50:07.232Z,13.93
2018-03-30T12:52:34.785Z,12.00
2018-03-30T12:55:02.761Z,13.20
2018-03-30T12:57:30.212Z,12.67
2018-03-30T12:59:57.874Z,11.37
2018-03-30T13:02:27.485Z,11.67
2018-03-30T13:04:55.455Z,11.27
2018-03-30T13:07:23.013Z,10.93
2018-03-30T13:09:50.606Z,10.00
2018-03-30T13:12:18.237Z,10.07
2018-03-30T13:14:45.796Z,12.50
2018-03-30T13:17:13.561Z,12.33
2018-03-30T13:19:41.017Z,11.80
2018-03-30T13:22:08.478Z,9.87
2018-03-30T13:24:36.444Z,10.67
2018-03-30T13:27:04.516Z,12.30
2018-03-30T13:29:32.076Z,10.43
2018-03-30T13:31:59.535Z,9.17
2018-03-30T13:34:27.506Z,10.70
2018-03-30T13:36:55.063Z,8.23
2018-03-30T13:39:23.032Z,9.77
2018-03-30T13:41:51.006Z,9.23
2018-03-30T13:44:18.564Z,9.43
2018-03-30T13:46:47.775Z,8.50
2018-03-30T13:49:16.554Z,7.60
2018-03-30T13:54:58.006Z,8.87
2018-03-30T13:57:30.685Z,8.30
2018-03-30T13:59:58.193Z,7.77
2018-03-30T14:02:43.093Z,6.07
2018-03-30T14:05:29.462Z,7.20
2018-03-30T14:08:05.656Z,6.33
2018-03-30T14:10:35.641Z,6.43
2018-03-30T14:13:04.533Z,5.63
2018-03-30T14:15:38.004Z,6.23
2018-03-30T14:18:19.170Z,6.30
2018-03-30T14:20:47.329Z,6.27
2018-03-30T14:31:57.595Z,5.20
2018-03-30T14:34:27.304Z,5.77
2018-03-30T14:37:03.875Z,6.87
2018-03-30T14:39:42.601Z,6.43
2018-03-30T14:42:23.064Z,4.93
2018-03-30T14:44:52.874Z,6.93
2018-03-30T14:47:33.437Z,5.67
2018-03-30T14:50:08.162Z,7.00
2018-03-30T14:55:39.533Z,7.17
2018-03-30T14:58:17.232Z,5.07
2018-03-30T15:00:51.974Z,4.83
2018-03-30T15:03:20.275Z,5.43
2018-03-30T15:06:03.534Z,6.27
2018-03-30T15:11:26.743Z,6.77
2018-03-30T15:13:57.345Z,6.80
2018-03-30T15:16:43.212Z,7.03
2018-03-30T15:19:11.057Z,6.87
2018-03-30T15:21:43.090Z,6.50
2018-03-30T15:27:09.039Z,6.53
2018-03-30T15:29:44.264Z,5.30
2018-03-30T15:35:15.411Z,6.10
2018-03-30T15:37:43.447Z,6.33
2018-03-30T15:40:16.337Z,8.03
2018-03-30T15:42:46.662Z,5.37
2018-03-30T15:45:15.924Z,5.37
2018-03-30T15:47:43.825Z,5.00
2018-03-30T15:50:11.454Z,6.27
2018-03-30T15:52:40.271Z,6.30
2018-03-30T15:55:07.820Z,7.20
2018-03-30T15:57:35.472Z,6.07
2018-03-30T16:00:03.846Z,5.60
2018-03-30T16:02:31.852Z,5.97
2018-03-30T16:04:59.476Z,6.93
2018-03-30T16:07:37.544Z,7.10
2018-03-30T16:10:15.933Z,6.03
2018-03-30T16:12:44.276Z,5.00
2018-03-30T16:15:12.660Z,5.97
2018-03-30T16:17:40.215Z,5.67
2018-03-30T16:20:07.607Z,7.10
2018-03-30T16:22:34.618Z,5.33
2018-03-30T16:25:02.178Z,5.63
2018-03-30T16:27:29.531Z,5.90
2018-03-30T16:30:08.564Z,6.23
2018-03-30T16:32:35.919Z,6.17
2018-03-30T16:35:03.581Z,5.87
2018-03-30T16:37:31.035Z,5.67
2018-03-30T16:39:58.495Z,6.13
2018-03-30T16:42:25.853Z,6.03
2018-03-30T16:44:53.204Z,7.33
2018-03-30T16:47:20.661Z,7.17
2018-03-30T16:49:48.117Z,6.67
2018-03-30T16:52:15.472Z,7.33
2018-03-30T16:54:42.829Z,6.43
2018-03-30T16:57:10.286Z,8.33
2018-03-30T16:59:37.668Z,8.23
2018-03-30T17:02:04.693Z,7.33
2018-03-30T17:04:32.147Z,7.70
2018-03-30T17:06:59.501Z,7.77
2018-03-30T17:09:26.445Z,7.27
2018-03-30T17:11:53.844Z,7.07
2018-03-30T17:14:20.889Z,7.77
2018-03-30T17:16:47.900Z,6.87
2018-03-30T17:19:15.258Z,7.67
2018-03-30T17:21:42.306Z,7.77
2018-03-30T17:24:10.686Z,6.73
2018-03-30T17:26:38.267Z,8.37
2018-03-30T17:29:05.698Z,8.03
2018-03-30T17:31:32.849Z,8.40
2018-03-30T17:34:00.312Z,8.60
2018-03-30T17:36:27.605Z,9.17
2018-03-30T17:38:55.067Z,8.47
2018-03-30T17:41:22.099Z,8.23
2018-03-30T17:43:49.139Z,8.27
2018-03-30T17:46:16.161Z,8.53
2018-03-30T17:48:43.564Z,8.60
2018-03-30T17:51:10.975Z,8.60
2018-03-30T17:53:38.327Z,9.13
2018-03-30T17:56:05.710Z,9.47
2018-03-30T17:58:32.734Z,9.17
2018-03-30T18:01:00.196Z,9.67
2018-03-30T18:03:27.647Z,10.07
2018-03-30T18:05:54.696Z,9.27
2018-03-30T18:08:22.158Z,8.03
2018-03-30T18:10:49.200Z,9.83
2018-03-30T18:13:16.252Z,10.03
2018-03-30T18:15:43.718Z,11.03
2018-03-30T18:18:10.688Z,10.63
2018-03-30T18:20:37.701Z,9.83
2018-03-30T18:23:05.159Z,8.63
2018-03-30T18:25:32.545Z,9.00
2018-03-30T18:27:59.663Z,9.13
2018-03-30T18:30:27.119Z,7.83
2018-03-30T18:32:54.478Z,8.43
2018-03-30T18:35:21.934Z,9.20
2018-03-30T18:37:49.392Z,8.83
2018-03-30T18:40:16.375Z,8.90
2018-03-30T18:42:43.386Z,9.30
2018-03-30T18:45:19.036Z,8.93
2018-03-30T18:47:46.420Z,9.27
2018-03-30T18:50:13.356Z,8.70
2018-03-30T18:52:40.486Z,8.87
2018-03-30T18:55:07.941Z,8.17
2018-03-30T18:57:35.404Z,8.67
2018-03-30T19:00:02.891Z,8.80
2018-03-30T19:02:30.009Z,7.60
2018-03-30T19:04:57.467Z,6.90
2018-03-30T19:07:24.925Z,8.43
2018-03-30T19:09:55.452Z,9.10
2018-03-30T19:12:22.501Z,7.40
2018-03-30T19:14:49.959Z,8.87
2018-03-30T19:17:17.339Z,7.90
2018-03-30T19:19:44.569Z,7.40
2018-03-30T19:22:11.923Z,8.33
2018-03-30T19:24:42.964Z,5.43
2018-03-30T19:27:10.422Z,9.00
2018-03-30T19:29:37.878Z,7.83
2018-03-30T19:32:05.235Z,8.87
2018-03-30T19:34:32.383Z,9.00
2018-03-30T19:36:59.841Z,8.47
2018-03-30T19:39:27.330Z,8.57
2018-03-30T19:41:54.247Z,6.97
2018-03-30T19:44:21.700Z,7.93
2018-03-30T19:46:49.160Z,8.50
2018-03-30T19:49:16.546Z,7.70
2018-03-30T19:51:43.486Z,7.50
2018-03-30T19:54:10.713Z,7.03
2018-03-30T19:56:38.172Z,7.30
2018-03-30T19:59:05.219Z,7.77
2018-03-30T20:01:32.266Z,6.60
2018-03-30T20:03:59.418Z,7.37
2018-03-30T20:06:31.001Z,7.63
2018-03-30T20:08:58.026Z,6.73
2018-03-30T20:11:25.376Z,8.27
2018-03-30T20:13:53.184Z,6.97
2018-03-30T20:16:20.290Z,7.43
2018-03-30T20:18:48.362Z,5.90
2018-03-30T20:21:15.818Z,7.60
2018-03-30T20:23:43.277Z,6.73
2018-03-30T20:26:10.836Z,7.73
2018-03-30T20:28:38.297Z,6.80
2018-03-30T20:31:14.352Z,6.50
2018-03-30T20:33:41.710Z,6.60
2018-03-30T20:36:08.756Z,7.20
2018-03-30T20:38:36.111Z,6.53
2018-03-30T20:41:03.568Z,6.83
2018-03-30T20:43:31.027Z,6.47
2018-03-30T20:46:03.910Z,8.23
2018-03-30T20:48:31.370Z,7.73
2018-03-30T20:50:58.417Z,6.77
2018-03-30T20:53:25.797Z,7.27
2018-03-30T20:55:52.860Z,6.77
2018-03-30T20:58:19.888Z,6.57
2018-03-30T21:00:46.915Z,5.83
2018-03-30T21:03:14.372Z,6.53
2018-03-30T21:05:41.830Z,4.37
2018-03-30T21:08:09.211Z,5.50
2018-03-30T21:10:36.235Z,5.83
2018-03-30T21:13:03.691Z,7.77
2018-03-30T21:15:30.740Z,5.07
2018-03-30T21:17:58.197Z,6.57
2018-03-30T21:20:26.578Z,6.63
2018-03-30T21:22:54.036Z,6.50
2018-03-30T21:25:21.389Z,6.53
2018-03-30T21:27:48.864Z,6.37
2018-03-30T21:30:16.058Z,5.17
2018-03-30T21:32:43.045Z,5.87
2018-03-30T21:35:10.504Z,6.80
2018-03-30T21:37:37.892Z,5.03
2018-03-30T21:40:04.874Z,6.47
2018-03-30T21:42:31.851Z,5.37
2018-03-30T21:44:59.310Z,6.20
2018-03-30T21:47:26.460Z,5.70
2018-03-30T21:49:54.432Z,8.23
2018-03-30T21:52:21.803Z,5.80
2018-03-30T21:54:48.760Z,6.17
2018-03-30T21:57:21.987Z,6.10
2018-03-30T21:59:49.073Z,7.00
2018-03-30T22:02:19.603Z,4.97
2018-03-30T22:04:47.059Z,5.33
2018-03-30T22:07:14.414Z,5.27
2018-03-30T22:09:41.795Z,6.23
2018-03-30T22:12:08.829Z,5.50
2018-03-30T22:14:35.970Z,5.07
2018-03-30T22:17:03.426Z,5.43
2018-03-30T22:19:32.109Z,5.07
2018-03-30T22:21:59.263Z,5.37
2018-03-30T22:24:27.131Z,5.63
2018-03-30T22:26:54.511Z,6.10
2018-03-30T22:29:21.432Z,4.40
2018-03-30T22:31:48.482Z,5.00
2018-03-30T22:34:28.429Z,5.90
2018-03-30T22:36:55.808Z,4.30
2018-03-30T22:39:22.839Z,5.03
2018-03-30T22:41:50.290Z,4.50
2018-03-30T22:44:17.748Z,4.27
2018-03-30T22:46:45.206Z,4.10
2018-03-30T22:49:12.661Z,5.30
2018-03-30T22:51:40.064Z,5.00
2018-03-30T22:54:06.990Z,4.90
2018-03-30T22:56:34.018Z,5.00
2018-03-30T22:59:00.991Z,4.90
2018-03-30T23:01:28.007Z,4.47
2018-03-30T23:03:55.463Z,4.83
2018-03-30T23:06:23.140Z,5.27
2018-03-30T23:08:50.490Z,4.03
2018-03-30T23:11:17.534Z,4.07
2018-03-30T23:13:45.399Z,4.90
2018-03-30T23:16:12.446Z,4.23
2018-03-30T23:18:39.841Z,5.13
2018-03-30T23:21:07.258Z,4.50
2018-03-30T23:23:34.728Z,4.17
2018-03-30T23:26:02.172Z,4.43
2018-03-30T23:28:29.220Z,4.63
2018-03-30T23:30:56.268Z,4.07
2018-03-30T23:33:23.726Z,4.53
2018-03-30T23:35:50.774Z,4.60
2018-03-30T23:38:18.144Z,5.00
2018-03-30T23:40:45.485Z,5.00
2018-03-30T23:43:13.459Z,5.30
2018-03-30T23:45:40.877Z,3.83
2018-03-30T23:48:07.856Z,4.87
2018-03-30T23:50:35.319Z,4.33
2018-03-30T23:53:02.270Z,4.20
2018-03-30T23:55:29.716Z,4.37
2018-03-30T23:57:57.278Z,4.87
